sensor_id;sensor_type;location;lat;lon;timestamp;P1;durP1;ratioP1;P2;durP2;ratioP2
2866;SDS011;1441;48.886;8.728;2023-02-28T00:01:19;2.40;;;1.03;;
2866;SDS011;1441;48.886;8.728;2023-02-28T00:03:45;1.10;;;1.10;;
2866;SDS011;1441;48.886;8.728;2023-02-28T00:06:10;1.93;;;1.73;;
2866;SDS011;1441;48.886;8.728;2023-02-28T00:08:36;1.43;;;1.23;;
2866;SDS011;1441;48.886;8.728;2023-02-28T00:11:02;4.63;;;1.70;;
2866;SDS011;1441;48.886;8.728;2023-02-28T00:13:29;1.73;;;1.60;;
2866;SDS011;1441;48.886;8.728;2023-02-28T00:16:02;1.63;;;1.53;;
2866;SDS011;1441;48.886;8.728;2023-02-28T00:18:29;2.83;;;1.57;;
2866;SDS011;1441;48.886;8.728;2023-02-28T00:20:55;1.67;;;1.37;;
2866;SDS011;1441;48.886;8.728;2023-02-28T00:23:22;3.60;;;1.67;;
2866;SDS011;1441;48.886;8.728;2023-02-28T00:25:47;1.47;;;1.33;;
2866;SDS011;1441;48.886;8.728;2023-02-28T00:28:13;2.60;;;1.67;;
2866;SDS011;1441;48.886;8.728;2023-02-28T00:30:39;2.57;;;1.60;;
2866;SDS011;1441;48.886;8.728;2023-02-28T00:33:05;1.63;;;1.53;;
2866;SDS011;1441;48.886;8.728;2023-02-28T00:35:30;2.70;;;1.70;;
2866;SDS011;1441;48.886;8.728;2023-02-28T00:37:56;4.40;;;2.20;;
2866;SDS011;1441;48.886;8.728;2023-02-28T00:40:21;2.03;;;1.70;;
2866;SDS011;1441;48.886;8.728;2023-02-28T00:42:47;1.83;;;1.40;;
2866;SDS011;1441;48.886;8.728;2023-02-28T00:45:12;2.10;;;2.00;;
2866;SDS011;1441;48.886;8.728;2023-02-28T00:47:38;3.00;;;1.80;;
2866;SDS011;1441;48.886;8.728;2023-02-28T00:50:04;2.57;;;2.23;;
2866;SDS011;1441;48.886;8.728;2023-02-28T00:52:30;1.73;;;1.63;;
2866;SDS011;1441;48.886;8.728;2023-02-28T00:54:55;8.33;;;1.97;;
2866;SDS011;1441;48.886;8.728;2023-02-28T00:57:21;3.80;;;1.80;;
2866;SDS011;1441;48.886;8.728;2023-02-28T00:59:47;4.10;;;1.80;;
2866;SDS011;1441;48.886;8.728;2023-02-28T01:02:12;2.10;;;1.73;;
2866;SDS011;1441;48.886;8.728;2023-02-28T01:04:38;1.90;;;1.80;;
2866;SDS011;1441;48.886;8.728;2023-02-28T01:07:04;1.60;;;1.50;;
2866;SDS011;1441;48.886;8.728;2023-02-28T01:09:29;1.93;;;1.83;;
2866;SDS011;1441;48.886;8.728;2023-02-28T01:11:55;2.13;;;2.03;;
2866;SDS011;1441;48.886;8.728;2023-02-28T01:14:20;4.33;;;1.90;;
2866;SDS011;1441;48.886;8.728;2023-02-28T01:16:46;2.50;;;1.80;;
2866;SDS011;1441;48.886;8.728;2023-02-28T01:19:12;4.10;;;2.30;;
2866;SDS011;1441;48.886;8.728;2023-02-28T01:21:37;2.13;;;1.93;;
2866;SDS011;1441;48.886;8.728;2023-02-28T01:24:03;3.40;;;1.73;;
2866;SDS011;1441;48.886;8.728;2023-02-28T01:26:30;2.03;;;1.93;;
2866;SDS011;1441;48.886;8.728;2023-02-28T01:28:56;2.23;;;2.13;;
2866;SDS011;1441;48.886;8.728;2023-02-28T01:31:22;5.70;;;2.27;;
2866;SDS011;1441;48.886;8.728;2023-02-28T01:33:48;2.27;;;2.07;;
2866;SDS011;1441;48.886;8.728;2023-02-28T01:36:15;1.97;;;1.87;;
2866;SDS011;1441;48.886;8.728;2023-02-28T01:38:43;3.17;;;2.30;;
2866;SDS011;1441;48.886;8.728;2023-02-28T01:41:09;5.03;;;2.07;;
2866;SDS011;1441;48.886;8.728;2023-02-28T01:43:58;2.27;;;2.13;;
2866;SDS011;1441;48.886;8.728;2023-02-28T01:46:28;2.13;;;2.00;;
2866;SDS011;1441;48.886;8.728;2023-02-28T01:51:44;2.13;;;1.83;;
2866;SDS011;1441;48.886;8.728;2023-02-28T01:54:22;3.23;;;2.00;;
2866;SDS011;1441;48.886;8.728;2023-02-28T01:56:55;1.70;;;1.60;;
2866;SDS011;1441;48.886;8.728;2023-02-28T01:59:47;2.57;;;2.37;;
2866;SDS011;1441;48.886;8.728;2023-02-28T02:02:20;2.23;;;1.93;;
2866;SDS011;1441;48.886;8.728;2023-02-28T02:05:00;2.70;;;2.07;;
2866;SDS011;1441;48.886;8.728;2023-02-28T02:07:31;2.23;;;2.03;;
2866;SDS011;1441;48.886;8.728;2023-02-28T02:10:16;1.80;;;1.70;;
2866;SDS011;1441;48.886;8.728;2023-02-28T02:15:40;2.70;;;2.03;;
2866;SDS011;1441;48.886;8.728;2023-02-28T02:29:18;4.07;;;2.10;;
2866;SDS011;1441;48.886;8.728;2023-02-28T02:32:16;1.60;;;1.50;;
2866;SDS011;1441;48.886;8.728;2023-02-28T02:35:11;2.20;;;2.00;;
2866;SDS011;1441;48.886;8.728;2023-02-28T02:40:16;7.13;;;1.90;;
2866;SDS011;1441;48.886;8.728;2023-02-28T02:47:49;1.70;;;1.60;;
2866;SDS011;1441;48.886;8.728;2023-02-28T02:50:26;2.60;;;1.97;;
2866;SDS011;1441;48.886;8.728;2023-02-28T02:52:57;1.70;;;1.60;;
2866;SDS011;1441;48.886;8.728;2023-02-28T02:55:26;3.40;;;2.40;;
2866;SDS011;1441;48.886;8.728;2023-02-28T02:57:56;4.80;;;2.10;;
2866;SDS011;1441;48.886;8.728;2023-02-28T03:00:27;3.73;;;2.33;;
2866;SDS011;1441;48.886;8.728;2023-02-28T03:02:57;2.37;;;2.17;;
2866;SDS011;1441;48.886;8.728;2023-02-28T03:05:25;2.37;;;2.20;;
2866;SDS011;1441;48.886;8.728;2023-02-28T03:07:54;2.87;;;1.90;;
2866;SDS011;1441;48.886;8.728;2023-02-28T03:10:30;2.63;;;2.43;;
2866;SDS011;1441;48.886;8.728;2023-02-28T03:13:00;3.70;;;2.47;;
2866;SDS011;1441;48.886;8.728;2023-02-28T03:16:04;3.13;;;2.83;;
2866;SDS011;1441;48.886;8.728;2023-02-28T03:27:09;6.03;;;2.93;;
2866;SDS011;1441;48.886;8.728;2023-02-28T03:29:47;2.60;;;2.40;;
2866;SDS011;1441;48.886;8.728;2023-02-28T03:34:59;3.23;;;2.27;;
2866;SDS011;1441;48.886;8.728;2023-02-28T03:37:40;3.37;;;2.67;;
2866;SDS011;1441;48.886;8.728;2023-02-28T03:40:10;4.97;;;2.57;;
2866;SDS011;1441;48.886;8.728;2023-02-28T03:42:42;3.20;;;2.77;;
2866;SDS011;1441;48.886;8.728;2023-02-28T03:45:13;2.67;;;2.43;;
2866;SDS011;1441;48.886;8.728;2023-02-28T03:47:54;3.97;;;2.77;;
2866;SDS011;1441;48.886;8.728;2023-02-28T03:50:35;3.30;;;2.47;;
2866;SDS011;1441;48.886;8.728;2023-02-28T03:55:51;2.70;;;2.50;;
2866;SDS011;1441;48.886;8.728;2023-02-28T03:58:43;2.57;;;2.10;;
2866;SDS011;1441;48.886;8.728;2023-02-28T04:03:50;2.40;;;2.30;;
2866;SDS011;1441;48.886;8.728;2023-02-28T04:06:18;3.97;;;2.80;;
2866;SDS011;1441;48.886;8.728;2023-02-28T04:08:45;2.77;;;2.57;;
2866;SDS011;1441;48.886;8.728;2023-02-28T04:11:15;4.47;;;3.20;;
2866;SDS011;1441;48.886;8.728;2023-02-28T04:14:03;5.60;;;3.00;;
2866;SDS011;1441;48.886;8.728;2023-02-28T04:16:30;2.53;;;2.33;;
2866;SDS011;1441;48.886;8.728;2023-02-28T04:18:57;2.93;;;2.40;;
2866;SDS011;1441;48.886;8.728;2023-02-28T04:21:34;2.63;;;2.40;;
2866;SDS011;1441;48.886;8.728;2023-02-28T04:24:02;3.00;;;2.70;;
2866;SDS011;1441;48.886;8.728;2023-02-28T04:26:32;4.50;;;3.77;;
2866;SDS011;1441;48.886;8.728;2023-02-28T04:28:59;5.10;;;3.03;;
2866;SDS011;1441;48.886;8.728;2023-02-28T04:31:25;2.97;;;2.67;;
2866;SDS011;1441;48.886;8.728;2023-02-28T04:33:51;4.83;;;3.40;;
2866;SDS011;1441;48.886;8.728;2023-02-28T04:36:17;3.03;;;2.70;;
2866;SDS011;1441;48.886;8.728;2023-02-28T04:38:43;3.43;;;2.90;;
2866;SDS011;1441;48.886;8.728;2023-02-28T04:41:10;3.00;;;2.80;;
2866;SDS011;1441;48.886;8.728;2023-02-28T04:43:35;3.40;;;3.10;;
2866;SDS011;1441;48.886;8.728;2023-02-28T04:46:02;2.87;;;2.37;;
2866;SDS011;1441;48.886;8.728;2023-02-28T04:48:29;4.17;;;2.20;;
2866;SDS011;1441;48.886;8.728;2023-02-28T04:51:00;4.17;;;3.63;;
2866;SDS011;1441;48.886;8.728;2023-02-28T04:53:27;8.03;;;3.20;;
2866;SDS011;1441;48.886;8.728;2023-02-28T04:55:54;3.30;;;2.73;;
2866;SDS011;1441;48.886;8.728;2023-02-28T04:58:20;4.00;;;3.17;;
2866;SDS011;1441;48.886;8.728;2023-02-28T05:00:48;9.87;;;3.10;;
2866;SDS011;1441;48.886;8.728;2023-02-28T05:03:17;3.53;;;3.00;;
2866;SDS011;1441;48.886;8.728;2023-02-28T05:05:43;2.90;;;2.63;;
2866;SDS011;1441;48.886;8.728;2023-02-28T05:08:08;5.33;;;2.93;;
2866;SDS011;1441;48.886;8.728;2023-02-28T05:10:34;4.90;;;3.57;;
2866;SDS011;1441;48.886;8.728;2023-02-28T05:13:00;3.57;;;2.60;;
2866;SDS011;1441;48.886;8.728;2023-02-28T05:15:26;3.90;;;3.50;;
2866;SDS011;1441;48.886;8.728;2023-02-28T05:17:51;4.50;;;3.77;;
2866;SDS011;1441;48.886;8.728;2023-02-28T05:20:17;4.17;;;3.77;;
2866;SDS011;1441;48.886;8.728;2023-02-28T05:22:43;3.37;;;3.07;;
2866;SDS011;1441;48.886;8.728;2023-02-28T05:25:14;5.00;;;3.80;;
2866;SDS011;1441;48.886;8.728;2023-02-28T05:27:45;4.03;;;3.27;;
2866;SDS011;1441;48.886;8.728;2023-02-28T05:30:11;4.10;;;3.63;;
2866;SDS011;1441;48.886;8.728;2023-02-28T05:32:37;6.83;;;3.20;;
2866;SDS011;1441;48.886;8.728;2023-02-28T05:35:03;6.43;;;3.43;;
2866;SDS011;1441;48.886;8.728;2023-02-28T05:37:30;5.77;;;4.33;;
2866;SDS011;1441;48.886;8.728;2023-02-28T05:39:55;4.57;;;4.03;;
2866;SDS011;1441;48.886;8.728;2023-02-28T05:42:21;6.77;;;4.10;;
2866;SDS011;1441;48.886;8.728;2023-02-28T05:44:46;6.20;;;3.93;;
2866;SDS011;1441;48.886;8.728;2023-02-28T05:47:12;5.37;;;3.13;;
2866;SDS011;1441;48.886;8.728;2023-02-28T05:49:40;3.93;;;3.50;;
2866;SDS011;1441;48.886;8.728;2023-02-28T05:52:06;5.03;;;3.83;;
2866;SDS011;1441;48.886;8.728;2023-02-28T05:54:32;4.83;;;3.60;;
2866;SDS011;1441;48.886;8.728;2023-02-28T05:56:57;5.47;;;3.90;;
2866;SDS011;1441;48.886;8.728;2023-02-28T05:59:23;3.73;;;3.43;;
2866;SDS011;1441;48.886;8.728;2023-02-28T06:01:48;4.43;;;4.00;;
2866;SDS011;1441;48.886;8.728;2023-02-28T06:04:15;3.67;;;3.00;;
2866;SDS011;1441;48.886;8.728;2023-02-28T06:06:44;4.70;;;3.50;;
2866;SDS011;1441;48.886;8.728;2023-02-28T06:09:11;5.50;;;3.60;;
2866;SDS011;1441;48.886;8.728;2023-02-28T06:11:36;4.80;;;3.23;;
2866;SDS011;1441;48.886;8.728;2023-02-28T06:14:02;3.70;;;3.33;;
2866;SDS011;1441;48.886;8.728;2023-02-28T06:16:29;5.97;;;3.27;;
2866;SDS011;1441;48.886;8.728;2023-02-28T06:18:59;3.77;;;2.80;;
2866;SDS011;1441;48.886;8.728;2023-02-28T06:21:26;4.97;;;3.27;;
2866;SDS011;1441;48.886;8.728;2023-02-28T06:23:53;10.03;;;3.50;;
2866;SDS011;1441;48.886;8.728;2023-02-28T06:26:19;4.20;;;3.80;;
2866;SDS011;1441;48.886;8.728;2023-02-28T06:28:45;5.30;;;3.10;;
2866;SDS011;1441;48.886;8.728;2023-02-28T06:31:12;5.10;;;3.70;;
2866;SDS011;1441;48.886;8.728;2023-02-28T06:33:40;3.53;;;3.23;;
2866;SDS011;1441;48.886;8.728;2023-02-28T06:36:07;7.13;;;3.73;;
2866;SDS011;1441;48.886;8.728;2023-02-28T06:38:34;3.10;;;2.80;;
2866;SDS011;1441;48.886;8.728;2023-02-28T06:41:01;4.20;;;3.50;;
2866;SDS011;1441;48.886;8.728;2023-02-28T06:43:28;4.63;;;3.10;;
2866;SDS011;1441;48.886;8.728;2023-02-28T06:45:56;3.73;;;3.43;;
2866;SDS011;1441;48.886;8.728;2023-02-28T06:48:23;3.20;;;3.00;;
2866;SDS011;1441;48.886;8.728;2023-02-28T06:50:49;11.83;;;3.67;;
2866;SDS011;1441;48.886;8.728;2023-02-28T06:53:15;4.60;;;3.67;;
2866;SDS011;1441;48.886;8.728;2023-02-28T06:55:41;4.30;;;3.43;;
2866;SDS011;1441;48.886;8.728;2023-02-28T06:58:07;6.43;;;3.13;;
2866;SDS011;1441;48.886;8.728;2023-02-28T07:00:44;7.90;;;3.97;;
2866;SDS011;1441;48.886;8.728;2023-02-28T07:03:10;5.93;;;3.17;;
2866;SDS011;1441;48.886;8.728;2023-02-28T07:05:37;4.13;;;3.63;;
2866;SDS011;1441;48.886;8.728;2023-02-28T07:08:04;4.87;;;3.67;;
2866;SDS011;1441;48.886;8.728;2023-02-28T07:10:30;3.97;;;3.27;;
2866;SDS011;1441;48.886;8.728;2023-02-28T07:12:57;4.73;;;3.60;;
2866;SDS011;1441;48.886;8.728;2023-02-28T07:15:23;7.23;;;3.40;;
2866;SDS011;1441;48.886;8.728;2023-02-28T07:17:48;4.90;;;3.77;;
2866;SDS011;1441;48.886;8.728;2023-02-28T07:20:15;4.63;;;3.77;;
2866;SDS011;1441;48.886;8.728;2023-02-28T07:22:40;4.70;;;3.47;;
2866;SDS011;1441;48.886;8.728;2023-02-28T07:25:06;5.37;;;3.53;;
2866;SDS011;1441;48.886;8.728;2023-02-28T07:27:32;6.90;;;4.00;;
2866;SDS011;1441;48.886;8.728;2023-02-28T07:29:59;4.73;;;3.67;;
2866;SDS011;1441;48.886;8.728;2023-02-28T07:32:26;6.60;;;3.37;;
2866;SDS011;1441;48.886;8.728;2023-02-28T07:34:52;5.03;;;3.63;;
2866;SDS011;1441;48.886;8.728;2023-02-28T07:37:18;6.07;;;3.90;;
2866;SDS011;1441;48.886;8.728;2023-02-28T07:39:44;4.73;;;3.30;;
2866;SDS011;1441;48.886;8.728;2023-02-28T07:42:09;5.67;;;3.97;;
2866;SDS011;1441;48.886;8.728;2023-02-28T07:44:37;4.13;;;3.47;;
2866;SDS011;1441;48.886;8.728;2023-02-28T07:47:06;5.70;;;3.67;;
2866;SDS011;1441;48.886;8.728;2023-02-28T07:49:35;4.43;;;3.63;;
2866;SDS011;1441;48.886;8.728;2023-02-28T07:52:02;5.13;;;3.70;;
2866;SDS011;1441;48.886;8.728;2023-02-28T07:54:31;6.03;;;3.40;;
2866;SDS011;1441;48.886;8.728;2023-02-28T07:56:57;3.63;;;3.23;;
2866;SDS011;1441;48.886;8.728;2023-02-28T07:59:23;5.30;;;3.87;;
2866;SDS011;1441;48.886;8.728;2023-02-28T08:01:48;4.93;;;3.47;;
2866;SDS011;1441;48.886;8.728;2023-02-28T08:04:15;3.53;;;3.23;;
2866;SDS011;1441;48.886;8.728;2023-02-28T08:06:42;4.57;;;3.70;;
2866;SDS011;1441;48.886;8.728;2023-02-28T08:09:07;3.97;;;3.57;;
2866;SDS011;1441;48.886;8.728;2023-02-28T08:11:33;7.80;;;4.13;;
2866;SDS011;1441;48.886;8.728;2023-02-28T08:13:59;6.80;;;4.30;;
2866;SDS011;1441;48.886;8.728;2023-02-28T08:16:24;4.70;;;3.73;;
2866;SDS011;1441;48.886;8.728;2023-02-28T08:18:53;6.20;;;4.33;;
2866;SDS011;1441;48.886;8.728;2023-02-28T08:21:19;5.10;;;4.20;;
2866;SDS011;1441;48.886;8.728;2023-02-28T08:23:46;10.67;;;4.80;;
2866;SDS011;1441;48.886;8.728;2023-02-28T08:26:13;5.97;;;4.50;;
2866;SDS011;1441;48.886;8.728;2023-02-28T08:28:38;6.50;;;4.10;;
2866;SDS011;1441;48.886;8.728;2023-02-28T08:31:11;4.50;;;3.93;;
2866;SDS011;1441;48.886;8.728;2023-02-28T08:33:39;4.40;;;3.93;;
2866;SDS011;1441;48.886;8.728;2023-02-28T08:36:05;6.10;;;4.13;;
2866;SDS011;1441;48.886;8.728;2023-02-28T08:38:32;6.67;;;4.33;;
2866;SDS011;1441;48.886;8.728;2023-02-28T08:40:58;5.70;;;3.83;;
2866;SDS011;1441;48.886;8.728;2023-02-28T08:43:32;5.10;;;4.37;;
2866;SDS011;1441;48.886;8.728;2023-02-28T08:45:58;5.37;;;4.23;;
2866;SDS011;1441;48.886;8.728;2023-02-28T08:48:25;5.77;;;5.17;;
2866;SDS011;1441;48.886;8.728;2023-02-28T08:50:59;5.83;;;4.53;;
2866;SDS011;1441;48.886;8.728;2023-02-28T08:53:32;8.00;;;5.20;;
2866;SDS011;1441;48.886;8.728;2023-02-28T08:58:24;5.90;;;4.27;;
2866;SDS011;1441;48.886;8.728;2023-02-28T09:00:50;7.20;;;4.97;;
2866;SDS011;1441;48.886;8.728;2023-02-28T09:03:16;7.43;;;4.57;;
2866;SDS011;1441;48.886;8.728;2023-02-28T09:05:51;6.90;;;5.00;;
2866;SDS011;1441;48.886;8.728;2023-02-28T09:08:26;5.93;;;4.10;;
2866;SDS011;1441;48.886;8.728;2023-02-28T09:10:53;6.60;;;5.00;;
2866;SDS011;1441;48.886;8.728;2023-02-28T09:13:21;6.30;;;4.63;;
2866;SDS011;1441;48.886;8.728;2023-02-28T09:15:47;7.20;;;4.90;;
2866;SDS011;1441;48.886;8.728;2023-02-28T09:18:13;8.07;;;4.90;;
2866;SDS011;1441;48.886;8.728;2023-02-28T09:20:40;7.87;;;5.60;;
2866;SDS011;1441;48.886;8.728;2023-02-28T09:23:06;7.40;;;4.97;;
2866;SDS011;1441;48.886;8.728;2023-02-28T09:25:33;5.03;;;4.10;;
2866;SDS011;1441;48.886;8.728;2023-02-28T09:28:01;8.97;;;5.83;;
2866;SDS011;1441;48.886;8.728;2023-02-28T09:30:27;10.60;;;5.60;;
2866;SDS011;1441;48.886;8.728;2023-02-28T09:32:53;8.90;;;5.27;;
2866;SDS011;1441;48.886;8.728;2023-02-28T09:35:20;8.83;;;5.40;;
2866;SDS011;1441;48.886;8.728;2023-02-28T09:37:47;9.10;;;5.60;;
2866;SDS011;1441;48.886;8.728;2023-02-28T09:40:13;7.33;;;5.57;;
2866;SDS011;1441;48.886;8.728;2023-02-28T09:42:42;6.53;;;4.90;;
2866;SDS011;1441;48.886;8.728;2023-02-28T09:45:33;8.10;;;5.00;;
2866;SDS011;1441;48.886;8.728;2023-02-28T09:48:02;8.50;;;5.37;;
2866;SDS011;1441;48.886;8.728;2023-02-28T09:50:38;6.30;;;5.00;;
2866;SDS011;1441;48.886;8.728;2023-02-28T09:53:28;7.17;;;5.67;;
2866;SDS011;1441;48.886;8.728;2023-02-28T09:56:07;9.50;;;5.40;;
2866;SDS011;1441;48.886;8.728;2023-02-28T09:58:45;6.87;;;4.93;;
2866;SDS011;1441;48.886;8.728;2023-02-28T10:06:57;8.13;;;5.60;;
2866;SDS011;1441;48.886;8.728;2023-02-28T10:09:32;8.83;;;5.77;;
2866;SDS011;1441;48.886;8.728;2023-02-28T10:12:02;6.60;;;4.80;;
2866;SDS011;1441;48.886;8.728;2023-02-28T10:14:30;8.17;;;6.10;;
2866;SDS011;1441;48.886;8.728;2023-02-28T10:17:02;7.70;;;6.20;;
2866;SDS011;1441;48.886;8.728;2023-02-28T10:22:27;31.07;;;5.93;;
2866;SDS011;1441;48.886;8.728;2023-02-28T10:25:18;8.23;;;5.73;;
2866;SDS011;1441;48.886;8.728;2023-02-28T10:27:45;7.40;;;5.27;;
2866;SDS011;1441;48.886;8.728;2023-02-28T10:30:11;7.80;;;5.40;;
2866;SDS011;1441;48.886;8.728;2023-02-28T10:32:38;8.80;;;5.83;;
2866;SDS011;1441;48.886;8.728;2023-02-28T10:37:40;8.47;;;5.73;;
2866;SDS011;1441;48.886;8.728;2023-02-28T10:43:03;6.87;;;5.00;;
2866;SDS011;1441;48.886;8.728;2023-02-28T10:45:31;8.80;;;6.50;;
2866;SDS011;1441;48.886;8.728;2023-02-28T10:49:00;9.53;;;6.20;;
2866;SDS011;1441;48.886;8.728;2023-02-28T10:55:53;9.23;;;5.90;;
2866;SDS011;1441;48.886;8.728;2023-02-28T11:04:00;7.07;;;5.53;;
2866;SDS011;1441;48.886;8.728;2023-02-28T11:06:26;8.70;;;5.90;;
2866;SDS011;1441;48.886;8.728;2023-02-28T11:08:56;7.87;;;5.90;;
2866;SDS011;1441;48.886;8.728;2023-02-28T11:11:25;9.03;;;5.60;;
2866;SDS011;1441;48.886;8.728;2023-02-28T11:13:57;7.73;;;5.83;;
2866;SDS011;1441;48.886;8.728;2023-02-28T11:16:33;13.90;;;6.10;;
2866;SDS011;1441;48.886;8.728;2023-02-28T11:19:02;11.23;;;5.73;;
2866;SDS011;1441;48.886;8.728;2023-02-28T11:21:35;8.37;;;6.13;;
2866;SDS011;1441;48.886;8.728;2023-02-28T11:26:42;9.67;;;6.40;;
2866;SDS011;1441;48.886;8.728;2023-02-28T11:29:24;6.23;;;5.63;;
2866;SDS011;1441;48.886;8.728;2023-02-28T11:32:02;10.23;;;6.37;;
2866;SDS011;1441;48.886;8.728;2023-02-28T11:35:02;8.50;;;6.40;;
2866;SDS011;1441;48.886;8.728;2023-02-28T11:37:34;7.80;;;5.70;;
2866;SDS011;1441;48.886;8.728;2023-02-28T11:40:00;9.30;;;6.03;;
2866;SDS011;1441;48.886;8.728;2023-02-28T11:50:31;8.67;;;6.43;;
2866;SDS011;1441;48.886;8.728;2023-02-28T11:53:01;11.17;;;6.80;;
2866;SDS011;1441;48.886;8.728;2023-02-28T11:55:44;10.10;;;6.00;;
2866;SDS011;1441;48.886;8.728;2023-02-28T11:58:31;9.37;;;6.83;;
2866;SDS011;1441;48.886;8.728;2023-02-28T12:07:28;8.80;;;6.17;;
2866;SDS011;1441;48.886;8.728;2023-02-28T12:12:50;9.30;;;6.20;;
2866;SDS011;1441;48.886;8.728;2023-02-28T12:21:08;7.73;;;6.33;;
2866;SDS011;1441;48.886;8.728;2023-02-28T12:24:04;8.63;;;6.00;;
2866;SDS011;1441;48.886;8.728;2023-02-28T12:26:42;10.07;;;6.47;;
2866;SDS011;1441;48.886;8.728;2023-02-28T12:31:52;9.53;;;6.60;;
2866;SDS011;1441;48.886;8.728;2023-02-28T12:34:22;8.23;;;5.80;;
2866;SDS011;1441;48.886;8.728;2023-02-28T12:36:53;9.80;;;6.90;;
2866;SDS011;1441;48.886;8.728;2023-02-28T12:39:26;9.40;;;6.57;;
2866;SDS011;1441;48.886;8.728;2023-02-28T12:41:55;10.30;;;6.60;;
2866;SDS011;1441;48.886;8.728;2023-02-28T12:47:00;9.80;;;6.50;;
2866;SDS011;1441;48.886;8.728;2023-02-28T12:52:13;9.57;;;6.80;;
2866;SDS011;1441;48.886;8.728;2023-02-28T12:54:53;6.77;;;6.03;;
2866;SDS011;1441;48.886;8.728;2023-02-28T13:00:00;8.57;;;6.60;;
2866;SDS011;1441;48.886;8.728;2023-02-28T13:08:03;8.50;;;6.40;;
2866;SDS011;1441;48.886;8.728;2023-02-28T13:10:49;8.30;;;6.43;;
2866;SDS011;1441;48.886;8.728;2023-02-28T13:13:29;7.50;;;6.00;;
2866;SDS011;1441;48.886;8.728;2023-02-28T13:16:09;9.17;;;6.20;;
2866;SDS011;1441;48.886;8.728;2023-02-28T13:18:39;7.90;;;6.10;;
2866;SDS011;1441;48.886;8.728;2023-02-28T13:21:09;8.10;;;6.20;;
2866;SDS011;1441;48.886;8.728;2023-02-28T13:26:24;8.30;;;5.70;;
2866;SDS011;1441;48.886;8.728;2023-02-28T13:34:30;8.97;;;6.13;;
2866;SDS011;1441;48.886;8.728;2023-02-28T13:39:49;11.90;;;7.10;;
2866;SDS011;1441;48.886;8.728;2023-02-28T13:47:35;8.40;;;6.63;;
2866;SDS011;1441;48.886;8.728;2023-02-28T13:50:14;8.57;;;6.57;;
2866;SDS011;1441;48.886;8.728;2023-02-28T13:52:45;11.77;;;7.30;;
2866;SDS011;1441;48.886;8.728;2023-02-28T13:58:10;6.40;;;5.30;;
2866;SDS011;1441;48.886;8.728;2023-02-28T14:06:51;9.00;;;6.23;;
2866;SDS011;1441;48.886;8.728;2023-02-28T14:11:51;8.20;;;6.57;;
2866;SDS011;1441;48.886;8.728;2023-02-28T14:17:05;9.23;;;7.00;;
2866;SDS011;1441;48.886;8.728;2023-02-28T14:19:35;7.63;;;6.53;;
2866;SDS011;1441;48.886;8.728;2023-02-28T14:24:57;9.67;;;7.00;;
2866;SDS011;1441;48.886;8.728;2023-02-28T14:27:48;10.50;;;7.13;;
2866;SDS011;1441;48.886;8.728;2023-02-28T14:33:27;6.90;;;5.70;;
2866;SDS011;1441;48.886;8.728;2023-02-28T14:38:55;8.37;;;6.60;;
2866;SDS011;1441;48.886;8.728;2023-02-28T14:41:24;11.27;;;7.10;;
2866;SDS011;1441;48.886;8.728;2023-02-28T14:43:56;9.30;;;6.93;;
2866;SDS011;1441;48.886;8.728;2023-02-28T14:46:29;7.80;;;6.67;;
2866;SDS011;1441;48.886;8.728;2023-02-28T14:49:01;9.47;;;7.07;;
2866;SDS011;1441;48.886;8.728;2023-02-28T14:51:29;9.73;;;6.87;;
2866;SDS011;1441;48.886;8.728;2023-02-28T14:53:59;8.63;;;6.43;;
2866;SDS011;1441;48.886;8.728;2023-02-28T14:56:32;8.03;;;6.50;;
2866;SDS011;1441;48.886;8.728;2023-02-28T14:59:00;10.33;;;6.87;;
2866;SDS011;1441;48.886;8.728;2023-02-28T15:01:26;8.17;;;6.40;;
2866;SDS011;1441;48.886;8.728;2023-02-28T15:03:59;8.17;;;6.40;;
2866;SDS011;1441;48.886;8.728;2023-02-28T15:06:32;7.87;;;6.50;;
2866;SDS011;1441;48.886;8.728;2023-02-28T15:09:08;8.70;;;6.90;;
2866;SDS011;1441;48.886;8.728;2023-02-28T15:11:42;10.27;;;7.67;;
2866;SDS011;1441;48.886;8.728;2023-02-28T15:14:15;8.17;;;6.50;;
2866;SDS011;1441;48.886;8.728;2023-02-28T15:16:44;9.20;;;7.50;;
2866;SDS011;1441;48.886;8.728;2023-02-28T15:19:14;8.83;;;6.60;;
2866;SDS011;1441;48.886;8.728;2023-02-28T15:21:47;8.63;;;7.07;;
2866;SDS011;1441;48.886;8.728;2023-02-28T15:24:17;13.10;;;7.97;;
2866;SDS011;1441;48.886;8.728;2023-02-28T15:26:51;13.63;;;7.50;;
2866;SDS011;1441;48.886;8.728;2023-02-28T15:29:22;10.63;;;7.30;;
2866;SDS011;1441;48.886;8.728;2023-02-28T15:31:51;9.23;;;7.03;;
2866;SDS011;1441;48.886;8.728;2023-02-28T15:34:42;8.97;;;6.80;;
2866;SDS011;1441;48.886;8.728;2023-02-28T15:39:51;12.03;;;7.13;;
2866;SDS011;1441;48.886;8.728;2023-02-28T15:42:19;8.13;;;6.53;;
2866;SDS011;1441;48.886;8.728;2023-02-28T15:44:46;7.93;;;6.70;;
2866;SDS011;1441;48.886;8.728;2023-02-28T15:47:16;11.83;;;7.80;;
2866;SDS011;1441;48.886;8.728;2023-02-28T15:49:57;8.60;;;6.90;;
2866;SDS011;1441;48.886;8.728;2023-02-28T15:57:47;8.40;;;7.27;;
2866;SDS011;1441;48.886;8.728;2023-02-28T16:00:18;8.43;;;6.70;;
2866;SDS011;1441;48.886;8.728;2023-02-28T16:02:47;8.87;;;7.37;;
2866;SDS011;1441;48.886;8.728;2023-02-28T16:05:26;10.10;;;7.17;;
2866;SDS011;1441;48.886;8.728;2023-02-28T16:08:17;9.10;;;6.83;;
2866;SDS011;1441;48.886;8.728;2023-02-28T16:10:42;12.80;;;7.13;;
2866;SDS011;1441;48.886;8.728;2023-02-28T16:13:08;9.00;;;6.73;;
2866;SDS011;1441;48.886;8.728;2023-02-28T16:15:41;10.67;;;7.50;;
2866;SDS011;1441;48.886;8.728;2023-02-28T16:18:12;13.70;;;6.80;;
2866;SDS011;1441;48.886;8.728;2023-02-28T16:20:38;10.23;;;7.10;;
2866;SDS011;1441;48.886;8.728;2023-02-28T16:23:04;8.27;;;6.93;;
2866;SDS011;1441;48.886;8.728;2023-02-28T16:25:34;7.50;;;6.70;;
2866;SDS011;1441;48.886;8.728;2023-02-28T16:28:02;9.93;;;7.10;;
2866;SDS011;1441;48.886;8.728;2023-02-28T16:30:29;9.00;;;7.00;;
2866;SDS011;1441;48.886;8.728;2023-02-28T16:32:57;8.87;;;7.40;;
2866;SDS011;1441;48.886;8.728;2023-02-28T16:35:23;10.07;;;7.90;;
2866;SDS011;1441;48.886;8.728;2023-02-28T16:37:52;9.57;;;7.30;;
2866;SDS011;1441;48.886;8.728;2023-02-28T16:40:23;8.60;;;7.30;;
2866;SDS011;1441;48.886;8.728;2023-02-28T16:42:51;9.57;;;7.20;;
2866;SDS011;1441;48.886;8.728;2023-02-28T16:45:24;8.83;;;6.90;;
2866;SDS011;1441;48.886;8.728;2023-02-28T16:47:51;10.40;;;7.53;;
2866;SDS011;1441;48.886;8.728;2023-02-28T16:50:28;9.90;;;7.70;;
2866;SDS011;1441;48.886;8.728;2023-02-28T16:52:55;7.00;;;6.20;;
2866;SDS011;1441;48.886;8.728;2023-02-28T16:55:22;10.10;;;7.60;;
2866;SDS011;1441;48.886;8.728;2023-02-28T16:57:58;8.13;;;6.73;;
2866;SDS011;1441;48.886;8.728;2023-02-28T17:00:26;10.30;;;6.77;;
2866;SDS011;1441;48.886;8.728;2023-02-28T17:02:53;9.57;;;7.37;;
2866;SDS011;1441;48.886;8.728;2023-02-28T17:05:19;9.93;;;6.90;;
2866;SDS011;1441;48.886;8.728;2023-02-28T17:07:45;10.63;;;7.53;;
2866;SDS011;1441;48.886;8.728;2023-02-28T17:10:15;11.90;;;7.50;;
2866;SDS011;1441;48.886;8.728;2023-02-28T17:12:51;11.43;;;7.43;;
2866;SDS011;1441;48.886;8.728;2023-02-28T17:15:18;11.87;;;7.77;;
2866;SDS011;1441;48.886;8.728;2023-02-28T17:17:45;9.83;;;7.10;;
2866;SDS011;1441;48.886;8.728;2023-02-28T17:20:12;13.63;;;7.33;;
2866;SDS011;1441;48.886;8.728;2023-02-28T17:22:39;8.80;;;6.47;;
2866;SDS011;1441;48.886;8.728;2023-02-28T17:25:05;12.47;;;7.97;;
2866;SDS011;1441;48.886;8.728;2023-02-28T17:27:31;11.93;;;7.37;;
2866;SDS011;1441;48.886;8.728;2023-02-28T17:29:56;24.07;;;13.50;;
2866;SDS011;1441;48.886;8.728;2023-02-28T17:32:22;11.90;;;8.17;;
2866;SDS011;1441;48.886;8.728;2023-02-28T17:34:48;13.37;;;7.60;;
2866;SDS011;1441;48.886;8.728;2023-02-28T17:37:14;11.67;;;7.50;;
2866;SDS011;1441;48.886;8.728;2023-02-28T17:39:39;11.37;;;7.50;;
2866;SDS011;1441;48.886;8.728;2023-02-28T17:42:05;13.10;;;7.47;;
2866;SDS011;1441;48.886;8.728;2023-02-28T17:44:30;10.03;;;7.10;;
2866;SDS011;1441;48.886;8.728;2023-02-28T17:46:56;9.60;;;6.87;;
2866;SDS011;1441;48.886;8.728;2023-02-28T17:49:22;12.20;;;6.97;;
2866;SDS011;1441;48.886;8.728;2023-02-28T17:51:48;11.43;;;7.30;;
2866;SDS011;1441;48.886;8.728;2023-02-28T17:54:15;10.70;;;7.70;;
2866;SDS011;1441;48.886;8.728;2023-02-28T17:56:41;7.93;;;6.63;;
2866;SDS011;1441;48.886;8.728;2023-02-28T17:59:09;10.90;;;6.67;;
2866;SDS011;1441;48.886;8.728;2023-02-28T18:01:36;10.87;;;7.57;;
2866;SDS011;1441;48.886;8.728;2023-02-28T18:04:02;10.87;;;7.77;;
2866;SDS011;1441;48.886;8.728;2023-02-28T18:06:33;10.87;;;7.13;;